createdAt,value
2022-10-06T00:00:04.792Z,3.03
2022-10-06T00:02:35.623Z,2.23
2022-10-06T00:05:03.411Z,1.70
2022-10-06T00:07:31.234Z,1.73
2022-10-06T00:09:59.022Z,1.93
2022-10-06T00:12:28.296Z,3.53
2022-10-06T00:14:56.086Z,2.57
2022-10-06T00:17:23.858Z,1.10
2022-10-06T00:19:51.671Z,5.03
2022-10-06T00:22:19.498Z,3.73
2022-10-06T00:24:47.271Z,3.33
2022-10-06T00:27:15.047Z,3.27
2022-10-06T00:29:44.455Z,2.80
2022-10-06T00:32:12.243Z,3.17
2022-10-06T00:34:39.946Z,3.80
2022-10-06T00:37:07.755Z,4.20
2022-10-06T00:39:35.496Z,2.33
2022-10-06T00:42:03.303Z,3.67
2022-10-06T00:44:31.097Z,4.47
2022-10-06T00:47:00.361Z,2.43
2022-10-06T00:49:31.895Z,3.40
2022-10-06T00:52:06.586Z,5.57
2022-10-06T00:54:37.306Z,4.50
2022-10-06T00:57:06.234Z,3.50
2022-10-06T00:59:34.517Z,3.87
2022-10-06T01:02:10.591Z,3.33
2022-10-06T01:04:42.305Z,10.23
2022-10-06T01:07:10.802Z,2.77
2022-10-06T01:09:39.501Z,3.50
2022-10-06T01:12:09.666Z,9.43
2022-10-06T01:14:40.260Z,4.33
2022-10-06T01:17:15.324Z,2.33
2022-10-06T01:19:50.542Z,4.30
2022-10-06T01:22:27.371Z,5.97
2022-10-06T01:24:55.320Z,5.87
2022-10-06T01:27:24.762Z,3.37
2022-10-06T01:29:54.759Z,4.73
2022-10-06T01:32:24.023Z,6.70
2022-10-06T01:34:52.047Z,3.37
2022-10-06T01:37:19.805Z,5.27
2022-10-06T01:39:48.955Z,5.07
2022-10-06T01:42:16.761Z,4.60
2022-10-06T01:44:44.592Z,5.43
2022-10-06T01:47:12.318Z,6.67
2022-10-06T01:49:40.346Z,6.17
2022-10-06T01:52:08.265Z,4.33
2022-10-06T01:54:36.058Z,9.80
2022-10-06T01:57:06.402Z,3.40
2022-10-06T01:59:34.209Z,3.70
2022-10-06T02:02:02.431Z,5.73
2022-10-06T02:04:30.400Z,5.60
2022-10-06T02:06:58.124Z,8.13
2022-10-06T02:09:25.937Z,2.07
2022-10-06T02:11:53.659Z,4.67
2022-10-06T02:14:22.781Z,4.97
2022-10-06T02:16:50.791Z,4.47
2022-10-06T02:19:18.538Z,7.53
2022-10-06T02:21:46.319Z,11.07
2022-10-06T02:24:14.069Z,6.10
2022-10-06T02:26:41.797Z,8.13
2022-10-06T02:29:09.745Z,7.77
2022-10-06T02:31:38.956Z,3.60
2022-10-06T02:34:06.798Z,10.70
2022-10-06T02:36:34.626Z,7.03
2022-10-06T02:39:02.368Z,7.77
2022-10-06T02:41:31.013Z,4.40
2022-10-06T02:43:58.806Z,4.90
2022-10-06T02:46:27.022Z,4.23
2022-10-06T02:48:56.141Z,5.33
2022-10-06T02:51:24.657Z,5.07
2022-10-06T02:53:52.867Z,8.23
2022-10-06T02:56:22.366Z,9.33
2022-10-06T02:58:51.460Z,7.07
2022-10-06T03:01:21.359Z,9.13
2022-10-06T03:03:49.173Z,4.17
2022-10-06T03:06:23.249Z,5.57
2022-10-06T03:08:51.453Z,4.40
2022-10-06T03:11:20.379Z,5.50
2022-10-06T03:13:49.457Z,3.87
2022-10-06T03:16:18.556Z,7.83
2022-10-06T03:18:47.003Z,5.37
2022-10-06T03:21:18.577Z,8.03
2022-10-06T03:23:47.916Z,7.10
2022-10-06T03:26:17.613Z,7.47
2022-10-06T03:28:46.009Z,12.60
2022-10-06T03:31:14.311Z,12.53
2022-10-06T03:33:42.173Z,5.60
2022-10-06T03:36:12.768Z,10.10
2022-10-06T03:38:42.254Z,5.23
2022-10-06T03:41:12.008Z,4.73
2022-10-06T03:43:40.794Z,6.00
2022-10-06T03:46:09.323Z,12.57
2022-10-06T03:48:37.343Z,8.63
2022-10-06T03:51:07.861Z,5.37
2022-10-06T03:53:36.466Z,6.63
2022-10-06T03:56:07.403Z,10.77
2022-10-06T03:58:36.870Z,7.43
2022-10-06T04:01:06.855Z,10.07
2022-10-06T04:03:35.874Z,4.77
2022-10-06T04:06:05.627Z,8.20
2022-10-06T04:08:34.933Z,9.60
2022-10-06T04:11:08.218Z,9.63
2022-10-06T04:13:36.257Z,5.17
2022-10-06T04:16:15.772Z,6.57
2022-10-06T04:18:44.999Z,4.57
2022-10-06T04:21:13.935Z,13.40
2022-10-06T04:23:42.167Z,5.80
2022-10-06T04:26:13.191Z,7.67
2022-10-06T04:28:42.253Z,10.30
2022-10-06T04:31:15.705Z,6.90
2022-10-06T04:33:44.079Z,11.03
2022-10-06T04:36:15.521Z,17.53
2022-10-06T04:38:43.915Z,14.77
2022-10-06T04:41:15.002Z,4.57
2022-10-06T04:43:43.425Z,14.63
2022-10-06T04:46:37.771Z,10.77
2022-10-06T04:48:59.580Z,9.37
2022-10-06T04:51:28.477Z,6.90
2022-10-06T04:53:56.232Z,8.67
2022-10-06T04:56:27.313Z,12.27
2022-10-06T04:58:56.930Z,14.60
2022-10-06T05:01:27.080Z,11.90
2022-10-06T05:03:56.917Z,13.00
2022-10-06T05:06:27.350Z,9.83
2022-10-06T05:08:56.811Z,10.67
2022-10-06T05:11:26.690Z,13.07
2022-10-06T05:13:56.545Z,11.53
2022-10-06T05:16:26.031Z,9.17
2022-10-06T05:18:54.055Z,17.03
2022-10-06T05:21:23.777Z,10.50
2022-10-06T05:23:51.919Z,7.27
2022-10-06T05:26:21.882Z,8.53
2022-10-06T05:28:51.654Z,10.30
2022-10-06T05:31:21.394Z,10.43
2022-10-06T05:33:49.694Z,20.07
2022-10-06T05:36:19.633Z,11.03
2022-10-06T05:38:48.267Z,11.30
2022-10-06T05:41:17.865Z,15.90
2022-10-06T05:43:45.946Z,20.03
2022-10-06T05:46:17.542Z,12.87
2022-10-06T05:48:46.814Z,13.90
2022-10-06T05:51:15.099Z,20.33
2022-10-06T05:53:43.070Z,17.57
2022-10-06T05:56:12.829Z,15.07
2022-10-06T05:58:42.047Z,15.37
2022-10-06T06:01:11.852Z,21.53
2022-10-06T06:03:42.361Z,12.60
2022-10-06T06:06:17.759Z,13.60
2022-10-06T06:08:46.112Z,16.97
2022-10-06T06:11:14.227Z,22.60
2022-10-06T06:13:42.091Z,15.97
2022-10-06T06:16:14.619Z,13.33
2022-10-06T06:18:43.895Z,18.47
2022-10-06T06:21:11.915Z,13.90
2022-10-06T06:23:41.240Z,13.73
2022-10-06T06:26:10.812Z,10.97
2022-10-06T06:28:40.204Z,11.00
2022-10-06T06:31:10.157Z,11.60
2022-10-06T06:33:39.600Z,17.53
2022-10-06T06:36:15.706Z,14.07
2022-10-06T06:38:44.119Z,13.43
2022-10-06T06:41:16.561Z,14.73
2022-10-06T06:43:45.296Z,13.10
2022-10-06T06:46:15.114Z,21.77
2022-10-06T06:48:43.221Z,24.37
2022-10-06T06:51:11.981Z,23.80
2022-10-06T06:53:41.935Z,12.23
2022-10-06T06:56:10.511Z,17.53
2022-10-06T06:58:38.789Z,14.67
2022-10-06T07:01:08.888Z,14.60
2022-10-06T07:06:28.183Z,24.80
2022-10-06T07:08:58.809Z,16.70
2022-10-06T07:11:28.671Z,22.33
2022-10-06T07:13:58.823Z,18.40
2022-10-06T07:16:44.475Z,8.93
2022-10-06T07:19:30.504Z,14.90
2022-10-06T07:22:18.409Z,10.97
2022-10-06T07:25:06.296Z,14.57
2022-10-06T07:27:36.579Z,18.47
2022-10-06T07:30:05.093Z,15.40
2022-10-06T07:32:35.309Z,9.17
2022-10-06T07:35:03.139Z,14.90
2022-10-06T07:37:31.471Z,14.60
2022-10-06T07:40:00.594Z,12.67
2022-10-06T07:42:28.391Z,15.27
2022-10-06T07:45:13.450Z,8.30
2022-10-06T07:47:41.245Z,12.07
2022-10-06T07:50:13.073Z,14.60
2022-10-06T07:52:40.862Z,13.80
2022-10-06T07:55:11.888Z,16.00
2022-10-06T07:57:39.699Z,13.57
2022-10-06T08:00:08.408Z,14.77
2022-10-06T08:02:36.465Z,13.47
2022-10-06T08:05:05.037Z,14.77
2022-10-06T08:07:32.821Z,13.57
2022-10-06T08:10:00.559Z,17.80
2022-10-06T08:12:37.722Z,14.67
2022-10-06T08:15:07.760Z,13.53
2022-10-06T08:17:37.160Z,17.13
2022-10-06T08:20:05.973Z,14.70
2022-10-06T08:22:33.955Z,14.73
2022-10-06T08:25:06.292Z,18.00
2022-10-06T08:27:38.777Z,15.07
2022-10-06T08:30:07.994Z,10.47
2022-10-06T08:32:37.103Z,9.00
2022-10-06T08:35:05.265Z,17.30
2022-10-06T08:37:32.972Z,14.20
2022-10-06T08:40:00.751Z,14.87
2022-10-06T08:42:38.130Z,12.93
2022-10-06T08:45:15.715Z,17.77
2022-10-06T08:47:53.015Z,15.70
2022-10-06T08:50:22.403Z,11.87
2022-10-06T08:52:58.075Z,10.43
2022-10-06T08:55:32.146Z,13.33
2022-10-06T08:58:14.551Z,9.97
2022-10-06T09:00:44.025Z,14.87
2022-10-06T09:03:23.721Z,22.77
2022-10-06T09:05:53.849Z,7.77
2022-10-06T09:08:39.772Z,25.03
2022-10-06T09:11:23.250Z,9.93
2022-10-06T09:13:59.833Z,13.97
2022-10-06T09:16:33.480Z,11.20
2022-10-06T09:19:12.495Z,10.50
2022-10-06T09:21:45.642Z,8.33
2022-10-06T09:24:16.579Z,7.37
2022-10-06T09:26:46.621Z,10.53
2022-10-06T09:29:15.067Z,6.13
2022-10-06T09:31:48.919Z,15.37
2022-10-06T09:34:24.428Z,9.90
2022-10-06T09:37:01.929Z,11.67
2022-10-06T09:39:33.435Z,9.10
2022-10-06T09:42:07.965Z,7.70
2022-10-06T09:44:48.103Z,14.43
2022-10-06T09:47:35.787Z,11.77
2022-10-06T09:50:11.956Z,10.37
2022-10-06T09:52:39.957Z,9.93
2022-10-06T09:55:12.939Z,10.67
2022-10-06T09:57:50.256Z,9.47
2022-10-06T10:00:28.267Z,10.40
2022-10-06T10:03:03.662Z,11.10
2022-10-06T10:05:34.457Z,13.10
2022-10-06T10:08:03.387Z,8.20
2022-10-06T10:10:31.640Z,12.40
2022-10-06T10:13:00.869Z,10.35
2022-10-06T10:15:33.871Z,12.43
2022-10-06T10:18:05.261Z,12.48
2022-10-06T10:20:38.498Z,12.60
2022-10-06T10:23:27.321Z,10.05
2022-10-06T10:26:14.617Z,5.85
2022-10-06T10:29:03.514Z,10.57
2022-10-06T10:31:41.570Z,6.93
2022-10-06T10:34:24.192Z,10.48
2022-10-06T10:36:56.752Z,9.88
2022-10-06T10:39:39.689Z,10.43
2022-10-06T10:42:15.828Z,10.80
2022-10-06T10:44:51.000Z,10.18
2022-10-06T10:47:25.854Z,5.55
2022-10-06T10:50:01.352Z,6.00
2022-10-06T10:52:33.097Z,15.90
2022-10-06T10:55:16.378Z,8.95
2022-10-06T10:57:46.055Z,6.18
2022-10-06T11:00:19.544Z,10.30
2022-10-06T11:02:47.700Z,9.07
2022-10-06T11:05:33.383Z,9.98
2022-10-06T11:08:07.774Z,12.18
2022-10-06T11:10:43.083Z,15.38
2022-10-06T11:13:17.336Z,16.23
2022-10-06T11:16:09.095Z,14.43
2022-10-06T11:18:48.051Z,15.07
2022-10-06T11:21:24.059Z,9.00
2022-10-06T11:23:57.681Z,9.82
2022-10-06T11:26:41.034Z,6.00
2022-10-06T11:29:22.586Z,7.43
2022-10-06T11:32:01.208Z,4.95
2022-10-06T11:34:29.003Z,8.75
2022-10-06T11:37:09.385Z,7.72
2022-10-06T11:39:47.934Z,6.93
2022-10-06T11:42:25.040Z,9.43
2022-10-06T11:45:01.261Z,11.13
2022-10-06T11:47:36.473Z,8.48
2022-10-06T11:50:33.272Z,9.43
2022-10-06T11:53:02.445Z,8.82
2022-10-06T11:55:30.914Z,13.38
2022-10-06T12:00:58.998Z,5.93
2022-10-06T12:04:13.058Z,13.35
2022-10-06T12:07:10.915Z,5.30
2022-10-06T12:09:52.683Z,12.98
2022-10-06T12:13:06.775Z,15.25
2022-10-06T12:19:00.560Z,9.82
2022-10-06T12:21:47.859Z,5.75
2022-10-06T12:24:44.787Z,6.10
2022-10-06T12:27:45.114Z,5.32
2022-10-06T12:30:22.539Z,13.27
2022-10-06T12:32:54.540Z,19.98
2022-10-06T12:35:30.277Z,10.90
2022-10-06T12:38:02.666Z,5.93
2022-10-06T12:40:46.746Z,7.78
2022-10-06T12:43:44.327Z,8.50
2022-10-06T12:46:22.086Z,8.82
2022-10-06T12:48:58.409Z,11.88
2022-10-06T12:54:13.292Z,14.05
2022-10-06T12:56:43.109Z,4.22
2022-10-06T12:59:25.142Z,7.15
2022-10-06T13:01:57.648Z,8.25
2022-10-06T13:04:40.542Z,5.13
2022-10-06T13:07:17.604Z,5.35
2022-10-06T13:09:46.547Z,6.05
2022-10-06T13:12:38.072Z,5.68
2022-10-06T13:15:18.989Z,5.82
2022-10-06T13:17:51.309Z,3.30
2022-10-06T13:20:27.320Z,5.13
2022-10-06T13:23:00.942Z,4.70
2022-10-06T13:25:45.252Z,6.78
2022-10-06T13:28:30.689Z,4.15
2022-10-06T13:30:59.990Z,4.25
2022-10-06T13:33:33.671Z,10.07
2022-10-06T13:36:03.066Z,4.10
2022-10-06T13:38:34.939Z,7.38
2022-10-06T13:41:21.167Z,11.75
2022-10-06T13:43:52.786Z,9.57
2022-10-06T13:46:23.250Z,4.50
2022-10-06T13:48:54.931Z,5.50
2022-10-06T13:51:25.896Z,4.88
2022-10-06T13:53:54.390Z,7.65
2022-10-06T13:58:57.463Z,8.60
2022-10-06T14:01:32.399Z,5.85
2022-10-06T14:04:14.768Z,5.57
2022-10-06T14:06:49.333Z,7.65
2022-10-06T14:09:23.821Z,5.40
2022-10-06T14:11:52.468Z,9.50
2022-10-06T14:14:20.484Z,7.00
2022-10-06T14:16:51.607Z,5.78
2022-10-06T14:19:40.282Z,8.25
2022-10-06T14:22:30.331Z,2.80
2022-10-06T14:24:58.179Z,4.40
2022-10-06T14:27:25.903Z,5.15
2022-10-06T14:29:53.945Z,5.78
2022-10-06T14:32:21.699Z,4.43
2022-10-06T14:34:50.820Z,6.70
2022-10-06T14:37:18.541Z,6.25
2022-10-06T14:39:46.832Z,5.47
2022-10-06T14:42:15.810Z,4.38
2022-10-06T14:44:44.814Z,3.75
2022-10-06T14:47:12.611Z,8.32
2022-10-06T14:49:40.847Z,5.97
2022-10-06T14:52:10.633Z,4.60
2022-10-06T14:54:38.707Z,5.63
2022-10-06T14:57:06.467Z,5.03
2022-10-06T14:59:34.220Z,6.68
2022-10-06T15:02:03.092Z,5.38
2022-10-06T15:04:31.434Z,3.55
2022-10-06T15:07:13.232Z,5.43
2022-10-06T15:09:42.733Z,6.20
2022-10-06T15:12:10.577Z,4.93
2022-10-06T15:14:39.924Z,5.30
2022-10-06T15:17:09.272Z,5.32
2022-10-06T15:19:37.182Z,6.43
2022-10-06T15:22:09.985Z,2.90
2022-10-06T15:24:37.762Z,5.13
2022-10-06T15:27:26.567Z,22.35
2022-10-06T15:29:54.405Z,6.15
2022-10-06T15:32:22.478Z,5.55
2022-10-06T15:34:52.537Z,7.75
2022-10-06T15:37:20.385Z,5.63
2022-10-06T15:39:48.138Z,6.60
2022-10-06T15:42:22.708Z,4.97
2022-10-06T15:44:50.902Z,7.47
2022-10-06T15:47:18.774Z,5.35
2022-10-06T15:49:47.064Z,2.85
2022-10-06T15:52:14.854Z,4.03
2022-10-06T15:54:43.957Z,5.13
2022-10-06T15:57:18.118Z,4.63
2022-10-06T15:59:50.193Z,5.18
2022-10-06T16:02:20.013Z,2.58
2022-10-06T16:05:16.242Z,9.77
2022-10-06T16:07:44.040Z,4.57
2022-10-06T16:10:12.164Z,4.55
2022-10-06T16:12:39.983Z,5.50
2022-10-06T16:15:10.301Z,5.63
2022-10-06T16:17:38.063Z,2.58
2022-10-06T16:20:06.496Z,8.30
2022-10-06T16:22:34.329Z,6.55
2022-10-06T16:25:02.105Z,4.15
2022-10-06T16:27:33.290Z,7.53
2022-10-06T16:30:01.463Z,5.35
2022-10-06T16:32:30.633Z,5.75
2022-10-06T16:34:58.399Z,7.60
2022-10-06T16:37:26.177Z,2.80
2022-10-06T16:39:54.006Z,2.70
2022-10-06T16:42:21.898Z,7.18
2022-10-06T16:44:49.728Z,5.45
2022-10-06T16:47:17.540Z,6.03
2022-10-06T16:49:46.716Z,9.05
2022-10-06T16:52:14.558Z,5.10
2022-10-06T16:54:42.330Z,4.18
2022-10-06T16:57:10.097Z,12.00
2022-10-06T16:59:37.891Z,6.18
2022-10-06T17:02:05.684Z,5.30
2022-10-06T17:04:33.499Z,5.17
2022-10-06T17:07:02.658Z,2.97
2022-10-06T17:09:30.967Z,4.45
2022-10-06T17:12:00.593Z,7.68
2022-10-06T17:14:30.372Z,4.17
2022-10-06T17:16:58.978Z,3.65
2022-10-06T17:19:28.498Z,5.73
2022-10-06T17:21:59.488Z,7.53
2022-10-06T17:24:31.219Z,4.97
2022-10-06T17:26:59.660Z,4.63
2022-10-06T17:29:27.800Z,6.23
2022-10-06T17:31:58.722Z,5.07
2022-10-06T17:34:31.874Z,9.47
2022-10-06T17:37:01.819Z,5.10
2022-10-06T17:39:31.164Z,5.93
2022-10-06T17:41:58.961Z,4.77
2022-10-06T17:44:28.510Z,9.43
2022-10-06T17:46:58.251Z,6.93
2022-10-06T17:49:26.499Z,5.70
2022-10-06T17:51:55.919Z,8.47
2022-10-06T17:54:26.821Z,8.60
2022-10-06T17:56:59.119Z,6.27
2022-10-06T17:59:30.277Z,7.10
2022-10-06T18:02:00.727Z,6.40
2022-10-06T18:04:29.031Z,8.13
2022-10-06T18:06:57.420Z,5.30
2022-10-06T18:09:25.303Z,8.10
2022-10-06T18:11:56.470Z,6.50
2022-10-06T18:14:27.546Z,7.40
2022-10-06T18:16:57.810Z,11.00
2022-10-06T18:19:29.735Z,6.90
2022-10-06T18:22:00.061Z,5.77
2022-10-06T18:24:30.423Z,8.23
2022-10-06T18:26:59.997Z,6.10
2022-10-06T18:29:32.781Z,4.70
2022-10-06T18:37:37.103Z,4.77
2022-10-06T18:40:05.946Z,7.67
2022-10-06T18:42:33.919Z,5.57
2022-10-06T18:45:20.620Z,6.73
2022-10-06T18:48:05.605Z,6.97
2022-10-06T18:50:34.218Z,7.03
2022-10-06T18:53:04.172Z,6.13
2022-10-06T18:55:35.128Z,10.47
2022-10-06T18:58:03.219Z,8.50
2022-10-06T19:00:32.400Z,7.03
2022-10-06T19:03:00.171Z,8.70
2022-10-06T19:05:27.959Z,6.77
2022-10-06T19:07:55.796Z,6.27
2022-10-06T19:10:23.570Z,6.30
2022-10-06T19:12:51.363Z,7.87
2022-10-06T19:15:21.146Z,5.53
2022-10-06T19:17:50.781Z,10.73
2022-10-06T19:20:19.152Z,5.13
2022-10-06T19:22:47.544Z,8.60
2022-10-06T19:25:18.646Z,5.00
2022-10-06T19:27:46.680Z,8.27
2022-10-06T19:30:14.555Z,4.53
2022-10-06T19:32:42.350Z,4.80
2022-10-06T19:35:11.499Z,4.97
2022-10-06T19:37:40.008Z,11.03
2022-10-06T19:40:11.161Z,9.73
2022-10-06T19:42:51.082Z,6.00
2022-10-06T19:45:20.707Z,12.43
2022-10-06T19:47:48.652Z,7.90
2022-10-06T19:50:18.242Z,6.70
2022-10-06T19:52:46.426Z,16.70
2022-10-06T19:55:14.698Z,13.07
2022-10-06T19:57:43.106Z,11.20
2022-10-06T20:00:12.423Z,12.50
2022-10-06T20:02:42.884Z,9.83
2022-10-06T20:05:11.797Z,6.40
2022-10-06T20:07:41.344Z,14.63
2022-10-06T20:10:09.745Z,6.10
2022-10-06T20:12:38.384Z,9.30
2022-10-06T20:15:07.318Z,8.53
2022-10-06T20:17:36.689Z,8.03
2022-10-06T20:20:04.781Z,10.27
2022-10-06T20:22:32.773Z,9.00
2022-10-06T20:25:02.428Z,4.87
2022-10-06T20:27:30.264Z,12.40
2022-10-06T20:29:58.386Z,9.47
2022-10-06T20:32:26.199Z,7.07
2022-10-06T20:34:54.047Z,8.30
2022-10-06T20:37:21.812Z,5.63
2022-10-06T20:40:06.932Z,10.03
2022-10-06T20:42:36.061Z,7.03
2022-10-06T20:45:04.209Z,6.13
2022-10-06T20:47:32.018Z,7.87
2022-10-06T20:49:59.846Z,5.67
2022-10-06T20:52:27.645Z,8.73
2022-10-06T20:54:55.436Z,7.33
2022-10-06T20:57:23.556Z,10.00
2022-10-06T20:59:52.755Z,9.70
2022-10-06T21:02:20.571Z,7.77
2022-10-06T21:04:48.364Z,12.17
2022-10-06T21:07:16.163Z,7.27
2022-10-06T21:09:46.493Z,4.70
2022-10-06T21:12:16.602Z,4.90
2022-10-06T21:14:44.374Z,6.90
2022-10-06T21:17:13.458Z,6.17
2022-10-06T21:19:41.165Z,5.33
2022-10-06T21:22:08.936Z,7.57
2022-10-06T21:24:36.716Z,6.10
2022-10-06T21:27:04.639Z,7.00
2022-10-06T21:29:32.377Z,5.73
2022-10-06T21:32:00.411Z,9.03
2022-10-06T21:34:29.533Z,7.30
2022-10-06T21:36:57.824Z,7.30
2022-10-06T21:39:25.590Z,8.27
2022-10-06T21:41:53.340Z,8.70
2022-10-06T21:44:21.015Z,7.47
2022-10-06T21:46:50.666Z,6.87
2022-10-06T21:49:19.821Z,4.50
2022-10-06T21:51:51.227Z,9.70
2022-10-06T21:54:19.722Z,6.87
2022-10-06T21:56:48.073Z,5.87
2022-10-06T21:59:15.947Z,5.47
2022-10-06T22:01:47.470Z,6.40
2022-10-06T22:04:16.373Z,5.47
2022-10-06T22:06:49.808Z,8.07
2022-10-06T22:09:20.832Z,6.63
2022-10-06T22:11:48.655Z,4.70
2022-10-06T22:14:18.545Z,5.73
2022-10-06T22:16:46.872Z,7.00
2022-10-06T22:19:16.255Z,7.67
2022-10-06T22:21:45.190Z,8.63
2022-10-06T22:24:14.656Z,7.73
2022-10-06T22:26:44.655Z,8.00
2022-10-06T22:29:16.155Z,7.03
2022-10-06T22:31:46.173Z,5.17
2022-10-06T22:34:15.961Z,8.80
2022-10-06T22:36:43.751Z,5.50
2022-10-06T22:39:11.901Z,7.00
2022-10-06T22:41:39.668Z,9.50
2022-10-06T22:44:08.751Z,6.90
2022-10-06T22:46:38.880Z,5.73
2022-10-06T22:49:07.054Z,7.37
2022-10-06T22:51:35.106Z,7.10
2022-10-06T22:54:03.078Z,4.67
2022-10-06T22:56:32.901Z,6.03
2022-10-06T22:59:01.088Z,5.40
2022-10-06T23:01:30.697Z,7.60
2022-10-06T23:03:58.676Z,4.40
2022-10-06T23:06:29.617Z,12.87
2022-10-06T23:08:57.598Z,7.27
2022-10-06T23:11:25.320Z,5.97
2022-10-06T23:13:53.253Z,7.13
2022-10-06T23:16:21.911Z,5.37
2022-10-06T23:18:51.312Z,6.43
2022-10-06T23:21:21.849Z,4.87
2022-10-06T23:23:51.483Z,5.37
2022-10-06T23:26:20.388Z,4.80
2022-10-06T23:28:52.676Z,7.23
2022-10-06T23:31:20.487Z,5.80
2022-10-06T23:33:48.289Z,9.40
2022-10-06T23:36:17.774Z,8.63
2022-10-06T23:38:45.855Z,10.77
2022-10-06T23:41:14.503Z,7.07
2022-10-06T23:43:42.236Z,6.00
2022-10-06T23:46:10.211Z,9.10
2022-10-06T23:48:38.144Z,5.77
2022-10-06T23:51:08.605Z,6.53
2022-10-06T23:53:37.909Z,3.63
2022-10-06T23:56:06.799Z,8.03
2022-10-06T23:58:34.931Z,6.77
